Estación Meteorológica Peña el Pijo (Robertgarden) [ 01/30/23 15:18:57 CET ]

Fecha Hora Presion(HPa) Temp (°C) Humedad % Rocio (°C) Viento ( m/s) Direccion Lluvia 1Hora(mm) Lluvia 24H(mm) LLuvia Total(mm)
2010-Sep-13 01:01:15 1018.200 14.5 71 9.3         156.43
2010-Sep-13 02:01:16 1018.500 13.0 74 8.5         156.43
2010-Sep-13 03:01:15 1018.500 12.1 76 8.0         156.43
2010-Sep-13 04:01:16 1018.500 11.4 78 7.7         156.43
2010-Sep-13 05:01:14 1018.300 11.1 78 7.4         156.43
2010-Sep-13 06:01:17 1018.400 10.5 80 7.2         156.43
2010-Sep-13 07:01:15 1018.400 10.1 82 7.1         156.43
2010-Sep-13 08:01:15 1019.000 9.6 82 6.6         156.43
2010-Sep-13 09:01:15 1019.500 12.3 82 9.3         156.43
2010-Sep-13 10:01:20 1019.500 18.9 61 11.2         156.43
2010-Sep-13 11:01:18 1019.600 23.8 47 11.8         156.43
2010-Sep-13 12:01:14 1019.300 27.6 35 10.7         156.43
2010-Sep-13 13:01:15 1018.600 32.4 22 7.8         156.43
2010-Sep-13 14:01:18 1018.800 33.5 20 7.5         156.43
2010-Sep-13 15:01:12 1018.400 32.9 22 8.2         156.43
2010-Sep-13 16:01:16 1017.900 34.1 21 8.6         156.43
2010-Sep-13 17:01:34 1017.800 32.6 22 8.0         156.43
2010-Sep-13 18:01:35 1017.500 30.9 22 6.6         156.43
2010-Sep-13 19:01:26 1017.700 26.9 29 7.3         156.43
2010-Sep-13 20:01:26 1017.500 24.8 33 7.4         156.43
2010-Sep-13 21:01:14 1018.400 22.9 46 10.6         156.43
2010-Sep-13 22:01:17 1019.300 19.1 56 10.1         156.43
2010-Sep-13 23:01:12 1019.900 16.9 62 9.6         156.43

Temperatura Máxima:34°    Temperatura Mínima:
Presión Máxima:1019.900 Hpa    Presión Mínima:1017.500 Hpa


Volver